sensor_id;sensor_type;location;lat;lon;timestamp;P1;durP1;ratioP1;P2;durP2;ratioP2
48040;SDS011;33815;48.386;11.738;2022-10-12T00:00:50;19.50;;;14.55;;
48040;SDS011;33815;48.386;11.738;2022-10-12T00:03:16;21.40;;;14.90;;
48040;SDS011;33815;48.386;11.738;2022-10-12T00:05:42;19.33;;;13.15;;
48040;SDS011;33815;48.386;11.738;2022-10-12T00:08:08;22.70;;;13.50;;
48040;SDS011;33815;48.386;11.738;2022-10-12T00:10:38;17.88;;;12.75;;
48040;SDS011;33815;48.386;11.738;2022-10-12T00:13:08;20.77;;;14.90;;
48040;SDS011;33815;48.386;11.738;2022-10-12T00:15:38;22.45;;;15.25;;
48040;SDS011;33815;48.386;11.738;2022-10-12T00:18:04;21.67;;;14.95;;
48040;SDS011;33815;48.386;11.738;2022-10-12T00:20:30;32.95;;;16.15;;
48040;SDS011;33815;48.386;11.738;2022-10-12T00:22:56;19.23;;;14.60;;
48040;SDS011;33815;48.386;11.738;2022-10-12T00:25:21;19.23;;;14.85;;
48040;SDS011;33815;48.386;11.738;2022-10-12T00:27:46;20.75;;;13.80;;
48040;SDS011;33815;48.386;11.738;2022-10-12T00:30:12;22.95;;;15.25;;
48040;SDS011;33815;48.386;11.738;2022-10-12T00:32:37;22.20;;;14.82;;
48040;SDS011;33815;48.386;11.738;2022-10-12T00:35:03;21.23;;;15.13;;
48040;SDS011;33815;48.386;11.738;2022-10-12T00:37:28;19.70;;;14.93;;
48040;SDS011;33815;48.386;11.738;2022-10-12T00:39:53;20.48;;;14.75;;
48040;SDS011;33815;48.386;11.738;2022-10-12T00:42:19;24.90;;;16.00;;
48040;SDS011;33815;48.386;11.738;2022-10-12T00:44:45;26.77;;;15.80;;
48040;SDS011;33815;48.386;11.738;2022-10-12T00:47:17;21.70;;;15.52;;
48040;SDS011;33815;48.386;11.738;2022-10-12T00:49:58;23.17;;;13.93;;
48040;SDS011;33815;48.386;11.738;2022-10-12T00:52:38;23.30;;;16.17;;
48040;SDS011;33815;48.386;11.738;2022-10-12T00:55:08;21.95;;;14.65;;
48040;SDS011;33815;48.386;11.738;2022-10-12T00:57:36;23.35;;;15.77;;
48040;SDS011;33815;48.386;11.738;2022-10-12T01:00:05;28.35;;;16.38;;
48040;SDS011;33815;48.386;11.738;2022-10-12T01:02:33;27.30;;;17.17;;
48040;SDS011;33815;48.386;11.738;2022-10-12T01:05:00;23.75;;;16.33;;
48040;SDS011;33815;48.386;11.738;2022-10-12T01:07:27;22.23;;;15.02;;
48040;SDS011;33815;48.386;11.738;2022-10-12T01:09:52;28.02;;;15.10;;
48040;SDS011;33815;48.386;11.738;2022-10-12T01:12:17;23.35;;;16.05;;
48040;SDS011;33815;48.386;11.738;2022-10-12T01:14:43;26.50;;;17.52;;
48040;SDS011;33815;48.386;11.738;2022-10-12T01:17:19;22.38;;;17.05;;
48040;SDS011;33815;48.386;11.738;2022-10-12T01:25:38;28.23;;;16.15;;
48040;SDS011;33815;48.386;11.738;2022-10-12T01:31:07;33.08;;;17.77;;
48040;SDS011;33815;48.386;11.738;2022-10-12T01:33:44;24.25;;;16.48;;
48040;SDS011;33815;48.386;11.738;2022-10-12T01:39:11;26.08;;;16.63;;
48040;SDS011;33815;48.386;11.738;2022-10-12T01:44:24;22.75;;;15.00;;
48040;SDS011;33815;48.386;11.738;2022-10-12T01:46:51;28.45;;;17.80;;
48040;SDS011;33815;48.386;11.738;2022-10-12T01:49:20;28.45;;;17.52;;
48040;SDS011;33815;48.386;11.738;2022-10-12T01:59:50;28.75;;;18.42;;
48040;SDS011;33815;48.386;11.738;2022-10-12T02:02:46;25.48;;;18.15;;
48040;SDS011;33815;48.386;11.738;2022-10-12T02:05:25;29.85;;;18.98;;
48040;SDS011;33815;48.386;11.738;2022-10-12T02:13:38;26.05;;;18.98;;
48040;SDS011;33815;48.386;11.738;2022-10-12T02:16:09;27.77;;;18.45;;
48040;SDS011;33815;48.386;11.738;2022-10-12T02:18:39;25.88;;;17.63;;
48040;SDS011;33815;48.386;11.738;2022-10-12T02:21:08;26.30;;;17.08;;
48040;SDS011;33815;48.386;11.738;2022-10-12T02:23:38;26.50;;;17.55;;
48040;SDS011;33815;48.386;11.738;2022-10-12T02:26:03;29.05;;;17.30;;
48040;SDS011;33815;48.386;11.738;2022-10-12T02:28:30;36.83;;;20.65;;
48040;SDS011;33815;48.386;11.738;2022-10-12T02:31:06;27.75;;;17.83;;
48040;SDS011;33815;48.386;11.738;2022-10-12T02:33:41;25.52;;;17.33;;
48040;SDS011;33815;48.386;11.738;2022-10-12T02:36:17;39.35;;;19.30;;
48040;SDS011;33815;48.386;11.738;2022-10-12T02:38:49;26.25;;;17.55;;
48040;SDS011;33815;48.386;11.738;2022-10-12T02:41:24;26.08;;;17.73;;
48040;SDS011;33815;48.386;11.738;2022-10-12T02:43:57;23.73;;;16.58;;
48040;SDS011;33815;48.386;11.738;2022-10-12T02:46:25;30.08;;;18.35;;
48040;SDS011;33815;48.386;11.738;2022-10-12T02:48:53;26.63;;;18.55;;
48040;SDS011;33815;48.386;11.738;2022-10-12T02:51:19;26.30;;;18.83;;
48040;SDS011;33815;48.386;11.738;2022-10-12T02:53:45;35.92;;;18.75;;
48040;SDS011;33815;48.386;11.738;2022-10-12T02:56:12;28.75;;;18.95;;
48040;SDS011;33815;48.386;11.738;2022-10-12T02:58:40;29.60;;;19.20;;
48040;SDS011;33815;48.386;11.738;2022-10-12T03:01:07;27.83;;;18.48;;
48040;SDS011;33815;48.386;11.738;2022-10-12T03:03:32;27.58;;;17.83;;
48040;SDS011;33815;48.386;11.738;2022-10-12T03:05:57;33.05;;;18.73;;
48040;SDS011;33815;48.386;11.738;2022-10-12T03:08:23;27.27;;;18.23;;
48040;SDS011;33815;48.386;11.738;2022-10-12T03:10:48;25.05;;;16.83;;
48040;SDS011;33815;48.386;11.738;2022-10-12T03:13:13;30.40;;;17.93;;
48040;SDS011;33815;48.386;11.738;2022-10-12T03:15:38;26.67;;;17.43;;
48040;SDS011;33815;48.386;11.738;2022-10-12T03:18:04;26.13;;;18.40;;
48040;SDS011;33815;48.386;11.738;2022-10-12T03:20:29;28.98;;;17.08;;
48040;SDS011;33815;48.386;11.738;2022-10-12T03:22:54;34.22;;;19.60;;
48040;SDS011;33815;48.386;11.738;2022-10-12T03:25:20;28.67;;;18.80;;
48040;SDS011;33815;48.386;11.738;2022-10-12T03:27:46;27.25;;;17.50;;
48040;SDS011;33815;48.386;11.738;2022-10-12T03:30:11;30.50;;;19.57;;
48040;SDS011;33815;48.386;11.738;2022-10-12T03:32:37;28.60;;;18.48;;
48040;SDS011;33815;48.386;11.738;2022-10-12T03:35:03;29.27;;;19.48;;
48040;SDS011;33815;48.386;11.738;2022-10-12T03:37:28;33.00;;;19.20;;
48040;SDS011;33815;48.386;11.738;2022-10-12T03:39:54;27.92;;;18.20;;
48040;SDS011;33815;48.386;11.738;2022-10-12T03:42:19;30.60;;;19.52;;
48040;SDS011;33815;48.386;11.738;2022-10-12T03:44:44;30.38;;;19.17;;
48040;SDS011;33815;48.386;11.738;2022-10-12T03:47:10;30.00;;;19.48;;
48040;SDS011;33815;48.386;11.738;2022-10-12T03:49:35;27.57;;;17.73;;
48040;SDS011;33815;48.386;11.738;2022-10-12T03:52:00;26.58;;;17.38;;
48040;SDS011;33815;48.386;11.738;2022-10-12T03:54:25;32.15;;;19.30;;
48040;SDS011;33815;48.386;11.738;2022-10-12T03:56:51;32.73;;;19.30;;
48040;SDS011;33815;48.386;11.738;2022-10-12T03:59:16;28.90;;;18.45;;
48040;SDS011;33815;48.386;11.738;2022-10-12T04:01:41;30.53;;;18.73;;
48040;SDS011;33815;48.386;11.738;2022-10-12T04:04:06;27.90;;;17.40;;
48040;SDS011;33815;48.386;11.738;2022-10-12T04:06:34;28.77;;;17.88;;
48040;SDS011;33815;48.386;11.738;2022-10-12T04:08:59;29.25;;;17.50;;
48040;SDS011;33815;48.386;11.738;2022-10-12T04:11:24;28.20;;;15.93;;
48040;SDS011;33815;48.386;11.738;2022-10-12T04:13:50;25.60;;;18.37;;
48040;SDS011;33815;48.386;11.738;2022-10-12T04:16:15;31.20;;;19.23;;
48040;SDS011;33815;48.386;11.738;2022-10-12T04:18:40;30.58;;;19.25;;
48040;SDS011;33815;48.386;11.738;2022-10-12T04:21:08;33.25;;;18.45;;
48040;SDS011;33815;48.386;11.738;2022-10-12T04:23:36;30.52;;;18.40;;
48040;SDS011;33815;48.386;11.738;2022-10-12T04:26:01;34.42;;;18.40;;
48040;SDS011;33815;48.386;11.738;2022-10-12T04:28:26;33.30;;;17.95;;
48040;SDS011;33815;48.386;11.738;2022-10-12T04:30:51;33.83;;;19.03;;
48040;SDS011;33815;48.386;11.738;2022-10-12T04:33:17;29.83;;;19.45;;
48040;SDS011;33815;48.386;11.738;2022-10-12T04:35:42;38.90;;;21.05;;
48040;SDS011;33815;48.386;11.738;2022-10-12T04:38:08;35.20;;;18.83;;
48040;SDS011;33815;48.386;11.738;2022-10-12T04:40:33;43.77;;;20.73;;
48040;SDS011;33815;48.386;11.738;2022-10-12T04:42:58;41.95;;;21.88;;
48040;SDS011;33815;48.386;11.738;2022-10-12T04:45:23;34.73;;;19.27;;
48040;SDS011;33815;48.386;11.738;2022-10-12T04:47:49;39.73;;;19.73;;
48040;SDS011;33815;48.386;11.738;2022-10-12T04:50:14;38.20;;;21.10;;
48040;SDS011;33815;48.386;11.738;2022-10-12T04:52:39;35.47;;;19.55;;
48040;SDS011;33815;48.386;11.738;2022-10-12T04:55:05;33.70;;;20.27;;
48040;SDS011;33815;48.386;11.738;2022-10-12T04:57:31;36.05;;;20.85;;
48040;SDS011;33815;48.386;11.738;2022-10-12T04:59:56;31.42;;;19.15;;
48040;SDS011;33815;48.386;11.738;2022-10-12T05:02:21;33.97;;;19.00;;
48040;SDS011;33815;48.386;11.738;2022-10-12T05:04:47;30.77;;;17.83;;
48040;SDS011;33815;48.386;11.738;2022-10-12T05:07:12;37.22;;;19.73;;
48040;SDS011;33815;48.386;11.738;2022-10-12T05:09:37;37.90;;;18.35;;
48040;SDS011;33815;48.386;11.738;2022-10-12T05:12:03;37.27;;;19.40;;
48040;SDS011;33815;48.386;11.738;2022-10-12T05:14:28;34.10;;;18.83;;
48040;SDS011;33815;48.386;11.738;2022-10-12T05:16:54;31.58;;;18.33;;
48040;SDS011;33815;48.386;11.738;2022-10-12T05:19:19;35.42;;;18.63;;
48040;SDS011;33815;48.386;11.738;2022-10-12T05:21:45;35.60;;;19.13;;
48040;SDS011;33815;48.386;11.738;2022-10-12T05:24:10;35.63;;;20.25;;
48040;SDS011;33815;48.386;11.738;2022-10-12T05:26:35;35.92;;;20.38;;
48040;SDS011;33815;48.386;11.738;2022-10-12T05:29:01;31.35;;;19.70;;
48040;SDS011;33815;48.386;11.738;2022-10-12T05:31:26;36.50;;;21.77;;
48040;SDS011;33815;48.386;11.738;2022-10-12T05:33:51;45.20;;;18.38;;
48040;SDS011;33815;48.386;11.738;2022-10-12T05:36:16;29.43;;;17.87;;
48040;SDS011;33815;48.386;11.738;2022-10-12T05:38:42;34.78;;;18.17;;
48040;SDS011;33815;48.386;11.738;2022-10-12T05:41:07;31.55;;;18.05;;
48040;SDS011;33815;48.386;11.738;2022-10-12T05:43:32;30.08;;;19.23;;
48040;SDS011;33815;48.386;11.738;2022-10-12T05:45:58;33.22;;;17.85;;
48040;SDS011;33815;48.386;11.738;2022-10-12T05:48:23;30.98;;;18.95;;
48040;SDS011;33815;48.386;11.738;2022-10-12T05:50:51;33.03;;;20.08;;
48040;SDS011;33815;48.386;11.738;2022-10-12T05:53:18;28.05;;;19.10;;
48040;SDS011;33815;48.386;11.738;2022-10-12T05:55:50;37.67;;;20.15;;
48040;SDS011;33815;48.386;11.738;2022-10-12T05:58:26;33.10;;;19.60;;
48040;SDS011;33815;48.386;11.738;2022-10-12T06:00:52;31.20;;;19.02;;
48040;SDS011;33815;48.386;11.738;2022-10-12T06:03:18;45.17;;;21.58;;
48040;SDS011;33815;48.386;11.738;2022-10-12T06:05:44;34.65;;;20.10;;
48040;SDS011;33815;48.386;11.738;2022-10-12T06:08:10;32.25;;;19.33;;
48040;SDS011;33815;48.386;11.738;2022-10-12T06:10:36;34.47;;;20.60;;
48040;SDS011;33815;48.386;11.738;2022-10-12T06:13:02;36.72;;;20.45;;
48040;SDS011;33815;48.386;11.738;2022-10-12T06:15:27;39.13;;;21.15;;
48040;SDS011;33815;48.386;11.738;2022-10-12T06:17:53;42.80;;;20.98;;
48040;SDS011;33815;48.386;11.738;2022-10-12T06:20:19;43.83;;;21.70;;
48040;SDS011;33815;48.386;11.738;2022-10-12T06:22:44;39.55;;;20.05;;
48040;SDS011;33815;48.386;11.738;2022-10-12T06:25:09;34.93;;;19.77;;
48040;SDS011;33815;48.386;11.738;2022-10-12T06:27:35;38.80;;;20.77;;
48040;SDS011;33815;48.386;11.738;2022-10-12T06:30:00;42.30;;;21.25;;
48040;SDS011;33815;48.386;11.738;2022-10-12T06:32:25;37.08;;;20.50;;
48040;SDS011;33815;48.386;11.738;2022-10-12T06:34:51;40.27;;;20.40;;
48040;SDS011;33815;48.386;11.738;2022-10-12T06:37:16;35.88;;;20.30;;
48040;SDS011;33815;48.386;11.738;2022-10-12T06:39:41;41.05;;;22.40;;
48040;SDS011;33815;48.386;11.738;2022-10-12T06:42:06;48.65;;;22.25;;
48040;SDS011;33815;48.386;11.738;2022-10-12T06:44:32;49.97;;;23.20;;
48040;SDS011;33815;48.386;11.738;2022-10-12T06:46:58;42.42;;;21.90;;
48040;SDS011;33815;48.386;11.738;2022-10-12T06:49:23;41.05;;;20.38;;
48040;SDS011;33815;48.386;11.738;2022-10-12T06:51:48;50.60;;;22.10;;
48040;SDS011;33815;48.386;11.738;2022-10-12T06:54:14;39.78;;;20.45;;
48040;SDS011;33815;48.386;11.738;2022-10-12T06:56:39;40.45;;;21.35;;
48040;SDS011;33815;48.386;11.738;2022-10-12T06:59:04;36.45;;;20.20;;
48040;SDS011;33815;48.386;11.738;2022-10-12T07:01:30;36.17;;;19.42;;
48040;SDS011;33815;48.386;11.738;2022-10-12T07:03:55;44.47;;;21.03;;
48040;SDS011;33815;48.386;11.738;2022-10-12T07:06:20;47.08;;;22.17;;
48040;SDS011;33815;48.386;11.738;2022-10-12T07:08:45;50.72;;;22.90;;
48040;SDS011;33815;48.386;11.738;2022-10-12T07:11:13;41.05;;;20.55;;
48040;SDS011;33815;48.386;11.738;2022-10-12T07:13:39;45.88;;;23.05;;
48040;SDS011;33815;48.386;11.738;2022-10-12T07:16:04;38.05;;;21.88;;
48040;SDS011;33815;48.386;11.738;2022-10-12T07:18:30;49.53;;;23.55;;
48040;SDS011;33815;48.386;11.738;2022-10-12T07:20:55;49.47;;;23.77;;
48040;SDS011;33815;48.386;11.738;2022-10-12T07:23:23;42.30;;;20.38;;
48040;SDS011;33815;48.386;11.738;2022-10-12T07:25:49;51.40;;;24.00;;
48040;SDS011;33815;48.386;11.738;2022-10-12T07:28:15;51.95;;;23.23;;
48040;SDS011;33815;48.386;11.738;2022-10-12T07:30:41;44.55;;;22.90;;
48040;SDS011;33815;48.386;11.738;2022-10-12T07:33:06;46.40;;;21.83;;
48040;SDS011;33815;48.386;11.738;2022-10-12T07:35:32;40.00;;;21.90;;
48040;SDS011;33815;48.386;11.738;2022-10-12T07:37:57;53.20;;;22.83;;
48040;SDS011;33815;48.386;11.738;2022-10-12T07:40:22;50.53;;;23.58;;
48040;SDS011;33815;48.386;11.738;2022-10-12T07:42:50;49.17;;;21.73;;
48040;SDS011;33815;48.386;11.738;2022-10-12T07:45:15;47.50;;;22.98;;
48040;SDS011;33815;48.386;11.738;2022-10-12T07:47:40;46.40;;;23.90;;
48040;SDS011;33815;48.386;11.738;2022-10-12T07:50:06;48.40;;;23.00;;
48040;SDS011;33815;48.386;11.738;2022-10-12T07:52:31;37.85;;;19.77;;
48040;SDS011;33815;48.386;11.738;2022-10-12T07:54:57;41.97;;;21.27;;
48040;SDS011;33815;48.386;11.738;2022-10-12T07:57:22;38.60;;;19.98;;
48040;SDS011;33815;48.386;11.738;2022-10-12T07:59:47;36.03;;;21.33;;
48040;SDS011;33815;48.386;11.738;2022-10-12T08:02:12;41.90;;;19.73;;
48040;SDS011;33815;48.386;11.738;2022-10-12T08:04:38;39.95;;;18.85;;
48040;SDS011;33815;48.386;11.738;2022-10-12T08:07:03;49.47;;;20.00;;
48040;SDS011;33815;48.386;11.738;2022-10-12T08:09:28;37.65;;;19.65;;
48040;SDS011;33815;48.386;11.738;2022-10-12T08:11:54;46.47;;;19.90;;
48040;SDS011;33815;48.386;11.738;2022-10-12T08:14:20;31.85;;;19.92;;
48040;SDS011;33815;48.386;11.738;2022-10-12T08:16:45;30.13;;;17.42;;
48040;SDS011;33815;48.386;11.738;2022-10-12T08:19:11;37.03;;;18.23;;
48040;SDS011;33815;48.386;11.738;2022-10-12T08:21:36;36.25;;;19.33;;
48040;SDS011;33815;48.386;11.738;2022-10-12T08:24:02;41.30;;;20.83;;
48040;SDS011;33815;48.386;11.738;2022-10-12T08:26:27;36.85;;;18.10;;
48040;SDS011;33815;48.386;11.738;2022-10-12T08:28:53;38.03;;;18.60;;
48040;SDS011;33815;48.386;11.738;2022-10-12T08:31:18;40.20;;;19.35;;
48040;SDS011;33815;48.386;11.738;2022-10-12T08:33:44;37.65;;;19.30;;
48040;SDS011;33815;48.386;11.738;2022-10-12T08:36:09;30.95;;;19.35;;
48040;SDS011;33815;48.386;11.738;2022-10-12T08:38:35;31.98;;;17.92;;
48040;SDS011;33815;48.386;11.738;2022-10-12T08:41:18;43.05;;;19.73;;
48040;SDS011;33815;48.386;11.738;2022-10-12T08:44:13;42.58;;;20.60;;
48040;SDS011;33815;48.386;11.738;2022-10-12T08:47:08;40.78;;;20.88;;
48040;SDS011;33815;48.386;11.738;2022-10-12T08:49:42;39.30;;;18.52;;
48040;SDS011;33815;48.386;11.738;2022-10-12T08:52:16;34.47;;;18.48;;
48040;SDS011;33815;48.386;11.738;2022-10-12T08:54:42;43.30;;;20.38;;
48040;SDS011;33815;48.386;11.738;2022-10-12T08:57:16;35.05;;;18.52;;
48040;SDS011;33815;48.386;11.738;2022-10-12T08:59:43;40.38;;;19.15;;
48040;SDS011;33815;48.386;11.738;2022-10-12T09:02:21;32.90;;;19.63;;
48040;SDS011;33815;48.386;11.738;2022-10-12T09:05:06;43.17;;;20.92;;
48040;SDS011;33815;48.386;11.738;2022-10-12T09:07:36;31.10;;;18.38;;
48040;SDS011;33815;48.386;11.738;2022-10-12T09:15:55;33.15;;;18.50;;
48040;SDS011;33815;48.386;11.738;2022-10-12T09:18:32;38.80;;;19.38;;
48040;SDS011;33815;48.386;11.738;2022-10-12T09:21:02;38.05;;;18.33;;
48040;SDS011;33815;48.386;11.738;2022-10-12T09:23:31;34.72;;;18.35;;
48040;SDS011;33815;48.386;11.738;2022-10-12T09:26:47;30.92;;;18.13;;
48040;SDS011;33815;48.386;11.738;2022-10-12T09:28:57;32.40;;;17.10;;
48040;SDS011;33815;48.386;11.738;2022-10-12T09:31:41;35.22;;;17.98;;
48040;SDS011;33815;48.386;11.738;2022-10-12T09:34:22;32.97;;;17.48;;
48040;SDS011;33815;48.386;11.738;2022-10-12T09:36:48;31.40;;;16.77;;
48040;SDS011;33815;48.386;11.738;2022-10-12T09:39:47;33.45;;;18.83;;
48040;SDS011;33815;48.386;11.738;2022-10-12T09:42:05;29.13;;;17.13;;
48040;SDS011;33815;48.386;11.738;2022-10-12T09:44:32;43.53;;;18.10;;
48040;SDS011;33815;48.386;11.738;2022-10-12T09:47:04;29.35;;;15.90;;
48040;SDS011;33815;48.386;11.738;2022-10-12T09:49:49;31.75;;;18.15;;
48040;SDS011;33815;48.386;11.738;2022-10-12T09:52:25;36.65;;;18.08;;
48040;SDS011;33815;48.386;11.738;2022-10-12T09:55:21;35.38;;;18.30;;
48040;SDS011;33815;48.386;11.738;2022-10-12T09:57:56;31.25;;;18.40;;
48040;SDS011;33815;48.386;11.738;2022-10-12T10:02:56;29.90;;;17.17;;
48040;SDS011;33815;48.386;11.738;2022-10-12T10:07:49;31.13;;;17.48;;
48040;SDS011;33815;48.386;11.738;2022-10-12T10:10:16;34.13;;;19.13;;
48040;SDS011;33815;48.386;11.738;2022-10-12T10:12:51;30.17;;;18.45;;
48040;SDS011;33815;48.386;11.738;2022-10-12T10:17:49;32.28;;;17.27;;
48040;SDS011;33815;48.386;11.738;2022-10-12T10:20:26;31.02;;;16.17;;
48040;SDS011;33815;48.386;11.738;2022-10-12T10:22:54;30.45;;;17.65;;
48040;SDS011;33815;48.386;11.738;2022-10-12T10:25:20;33.45;;;18.63;;
48040;SDS011;33815;48.386;11.738;2022-10-12T10:27:47;39.13;;;19.75;;
48040;SDS011;33815;48.386;11.738;2022-10-12T10:32:40;33.83;;;17.60;;
48040;SDS011;33815;48.386;11.738;2022-10-12T10:37:38;34.28;;;18.20;;
48040;SDS011;33815;48.386;11.738;2022-10-12T10:40:06;35.33;;;18.05;;
48040;SDS011;33815;48.386;11.738;2022-10-12T10:42:42;34.55;;;17.88;;
48040;SDS011;33815;48.386;11.738;2022-10-12T10:45:18;33.88;;;18.20;;
48040;SDS011;33815;48.386;11.738;2022-10-12T10:47:49;38.80;;;18.52;;
48040;SDS011;33815;48.386;11.738;2022-10-12T10:50:24;40.38;;;19.38;;
48040;SDS011;33815;48.386;11.738;2022-10-12T10:52:56;32.60;;;18.00;;
48040;SDS011;33815;48.386;11.738;2022-10-12T10:55:35;31.95;;;17.15;;
48040;SDS011;33815;48.386;11.738;2022-10-12T10:58:08;29.33;;;16.15;;
48040;SDS011;33815;48.386;11.738;2022-10-12T11:00:43;34.95;;;17.38;;
48040;SDS011;33815;48.386;11.738;2022-10-12T11:03:13;31.25;;;19.27;;
48040;SDS011;33815;48.386;11.738;2022-10-12T11:05:45;34.30;;;16.83;;
48040;SDS011;33815;48.386;11.738;2022-10-12T11:18:57;33.83;;;16.75;;
48040;SDS011;33815;48.386;11.738;2022-10-12T11:21:29;30.90;;;18.85;;
48040;SDS011;33815;48.386;11.738;2022-10-12T11:24:06;31.25;;;18.05;;
48040;SDS011;33815;48.386;11.738;2022-10-12T11:26:49;29.02;;;17.60;;
48040;SDS011;33815;48.386;11.738;2022-10-12T11:29:18;30.40;;;17.52;;
48040;SDS011;33815;48.386;11.738;2022-10-12T11:32:05;26.95;;;16.63;;
48040;SDS011;33815;48.386;11.738;2022-10-12T11:34:37;34.70;;;17.08;;
48040;SDS011;33815;48.386;11.738;2022-10-12T11:37:13;30.58;;;16.98;;
48040;SDS011;33815;48.386;11.738;2022-10-12T11:39:43;28.83;;;17.02;;
48040;SDS011;33815;48.386;11.738;2022-10-12T11:42:14;31.23;;;16.77;;
48040;SDS011;33815;48.386;11.738;2022-10-12T11:44:47;28.67;;;16.60;;
48040;SDS011;33815;48.386;11.738;2022-10-12T11:47:20;30.38;;;17.15;;
48040;SDS011;33815;48.386;11.738;2022-10-12T11:50:04;26.92;;;16.67;;
48040;SDS011;33815;48.386;11.738;2022-10-12T11:52:39;29.50;;;16.80;;
48040;SDS011;33815;48.386;11.738;2022-10-12T11:57:52;25.85;;;15.52;;
48040;SDS011;33815;48.386;11.738;2022-10-12T12:00:24;30.85;;;16.60;;
48040;SDS011;33815;48.386;11.738;2022-10-12T12:03:13;25.15;;;15.30;;
48040;SDS011;33815;48.386;11.738;2022-10-12T12:05:42;27.83;;;16.08;;
48040;SDS011;33815;48.386;11.738;2022-10-12T12:08:19;23.92;;;15.32;;
48040;SDS011;33815;48.386;11.738;2022-10-12T12:10:52;28.40;;;16.90;;
48040;SDS011;33815;48.386;11.738;2022-10-12T12:13:27;26.85;;;15.95;;
48040;SDS011;33815;48.386;11.738;2022-10-12T12:18:30;24.77;;;15.63;;
48040;SDS011;33815;48.386;11.738;2022-10-12T12:21:08;25.50;;;15.27;;
48040;SDS011;33815;48.386;11.738;2022-10-12T12:23:50;25.88;;;15.68;;
48040;SDS011;33815;48.386;11.738;2022-10-12T12:26:17;30.23;;;15.90;;
48040;SDS011;33815;48.386;11.738;2022-10-12T12:28:51;24.73;;;14.40;;
48040;SDS011;33815;48.386;11.738;2022-10-12T12:31:34;28.77;;;16.40;;
48040;SDS011;33815;48.386;11.738;2022-10-12T12:34:04;26.83;;;16.02;;
48040;SDS011;33815;48.386;11.738;2022-10-12T12:36:37;22.75;;;13.32;;
48040;SDS011;33815;48.386;11.738;2022-10-12T12:39:18;23.90;;;14.95;;
48040;SDS011;33815;48.386;11.738;2022-10-12T12:41:49;23.73;;;14.98;;
48040;SDS011;33815;48.386;11.738;2022-10-12T12:44:40;27.33;;;15.25;;
48040;SDS011;33815;48.386;11.738;2022-10-12T12:52:02;25.75;;;15.32;;
48040;SDS011;33815;48.386;11.738;2022-10-12T12:54:34;26.17;;;14.48;;
48040;SDS011;33815;48.386;11.738;2022-10-12T12:59:53;34.58;;;16.63;;
48040;SDS011;33815;48.386;11.738;2022-10-12T13:10:36;25.92;;;13.95;;
48040;SDS011;33815;48.386;11.738;2022-10-12T13:13:25;25.83;;;14.60;;
48040;SDS011;33815;48.386;11.738;2022-10-12T13:21:18;27.63;;;15.48;;
48040;SDS011;33815;48.386;11.738;2022-10-12T13:23:49;20.20;;;12.45;;
48040;SDS011;33815;48.386;11.738;2022-10-12T13:26:24;29.60;;;14.38;;
48040;SDS011;33815;48.386;11.738;2022-10-12T13:28:51;24.52;;;15.30;;
48040;SDS011;33815;48.386;11.738;2022-10-12T13:34:02;25.40;;;13.93;;
48040;SDS011;33815;48.386;11.738;2022-10-12T13:36:51;20.25;;;13.65;;
48040;SDS011;33815;48.386;11.738;2022-10-12T13:39:22;24.80;;;14.30;;
48040;SDS011;33815;48.386;11.738;2022-10-12T13:41:48;26.35;;;15.27;;
48040;SDS011;33815;48.386;11.738;2022-10-12T13:44:34;22.52;;;14.13;;
48040;SDS011;33815;48.386;11.738;2022-10-12T13:47:01;26.80;;;16.13;;
48040;SDS011;33815;48.386;11.738;2022-10-12T13:49:44;23.33;;;13.55;;
48040;SDS011;33815;48.386;11.738;2022-10-12T13:59:55;23.88;;;12.43;;
48040;SDS011;33815;48.386;11.738;2022-10-12T14:02:26;26.83;;;13.50;;
48040;SDS011;33815;48.386;11.738;2022-10-12T14:04:53;19.35;;;12.00;;
48040;SDS011;33815;48.386;11.738;2022-10-12T14:07:21;21.90;;;12.40;;
48040;SDS011;33815;48.386;11.738;2022-10-12T14:10:08;21.30;;;12.82;;
48040;SDS011;33815;48.386;11.738;2022-10-12T14:12:44;18.77;;;12.02;;
48040;SDS011;33815;48.386;11.738;2022-10-12T14:15:11;20.30;;;11.90;;
48040;SDS011;33815;48.386;11.738;2022-10-12T14:17:41;21.52;;;13.07;;
48040;SDS011;33815;48.386;11.738;2022-10-12T14:22:58;21.30;;;12.57;;
48040;SDS011;33815;48.386;11.738;2022-10-12T14:25:27;20.67;;;12.90;;
48040;SDS011;33815;48.386;11.738;2022-10-12T14:28:00;18.23;;;11.73;;
48040;SDS011;33815;48.386;11.738;2022-10-12T14:30:29;20.88;;;12.77;;
48040;SDS011;33815;48.386;11.738;2022-10-12T14:33:07;19.13;;;11.38;;
48040;SDS011;33815;48.386;11.738;2022-10-12T14:36:26;25.40;;;13.70;;
48040;SDS011;33815;48.386;11.738;2022-10-12T14:38:45;25.10;;;13.85;;
48040;SDS011;33815;48.386;11.738;2022-10-12T14:44:02;23.35;;;13.93;;
48040;SDS011;33815;48.386;11.738;2022-10-12T14:46:32;20.52;;;12.90;;
48040;SDS011;33815;48.386;11.738;2022-10-12T14:48:58;21.77;;;12.43;;
48040;SDS011;33815;48.386;11.738;2022-10-12T14:51:23;18.27;;;12.30;;
48040;SDS011;33815;48.386;11.738;2022-10-12T14:53:58;22.05;;;12.38;;
48040;SDS011;33815;48.386;11.738;2022-10-12T14:56:24;21.05;;;12.35;;
48040;SDS011;33815;48.386;11.738;2022-10-12T14:58:50;18.42;;;11.80;;
48040;SDS011;33815;48.386;11.738;2022-10-12T15:01:15;19.60;;;11.00;;
48040;SDS011;33815;48.386;11.738;2022-10-12T15:03:40;16.50;;;11.05;;
48040;SDS011;33815;48.386;11.738;2022-10-12T15:06:08;19.27;;;10.73;;
48040;SDS011;33815;48.386;11.738;2022-10-12T15:08:37;18.10;;;11.45;;
48040;SDS011;33815;48.386;11.738;2022-10-12T15:11:02;19.45;;;12.82;;
48040;SDS011;33815;48.386;11.738;2022-10-12T15:13:29;20.10;;;11.75;;
48040;SDS011;33815;48.386;11.738;2022-10-12T15:15:54;18.75;;;10.55;;
48040;SDS011;33815;48.386;11.738;2022-10-12T15:18:20;18.52;;;11.40;;
48040;SDS011;33815;48.386;11.738;2022-10-12T15:20:46;19.05;;;10.43;;
48040;SDS011;33815;48.386;11.738;2022-10-12T15:23:12;19.40;;;11.20;;
48040;SDS011;33815;48.386;11.738;2022-10-12T15:28:15;16.25;;;9.95;;
48040;SDS011;33815;48.386;11.738;2022-10-12T15:30:40;21.20;;;11.43;;
48040;SDS011;33815;48.386;11.738;2022-10-12T15:33:05;27.40;;;13.20;;
48040;SDS011;33815;48.386;11.738;2022-10-12T15:35:31;20.80;;;12.32;;
48040;SDS011;33815;48.386;11.738;2022-10-12T15:37:59;21.63;;;12.40;;
48040;SDS011;33815;48.386;11.738;2022-10-12T15:40:25;20.00;;;11.65;;
48040;SDS011;33815;48.386;11.738;2022-10-12T15:42:52;20.58;;;13.05;;
48040;SDS011;33815;48.386;11.738;2022-10-12T15:45:22;20.48;;;11.85;;
48040;SDS011;33815;48.386;11.738;2022-10-12T15:47:48;23.75;;;14.50;;
48040;SDS011;33815;48.386;11.738;2022-10-12T15:50:17;19.30;;;12.18;;
48040;SDS011;33815;48.386;11.738;2022-10-12T15:52:50;23.50;;;13.77;;
48040;SDS011;33815;48.386;11.738;2022-10-12T15:55:19;23.27;;;15.75;;
48040;SDS011;33815;48.386;11.738;2022-10-12T15:57:49;21.55;;;14.65;;
48040;SDS011;33815;48.386;11.738;2022-10-12T16:00:16;24.17;;;13.73;;
48040;SDS011;33815;48.386;11.738;2022-10-12T16:02:43;20.10;;;12.80;;